DRK189 VIDP-VQPR
Flight info
| Callsign | DRK189 |
|---|---|
| Flight time | 2h 5m |
| Altitude | 37000 |
| Route | ALI DCT KTM B345 TUMLI G348 SUBSU SUBSU1 |
| Aircraft | A320/M-SDE3FGHIRWY/LB1 |
Departure
| Time | 2026-05-09 08:49 |
|---|---|
| Airport | Indira Gandhi International Airport (VIDP) |
Arrival
| Time | 2026-05-09 10:54 |
|---|---|
| Airport | Paro International Airport (VQPR) |
| Time | Latitude | Longitude | Altitude | Speed | Heading |
|---|---|---|---|---|---|
| 2026-05-09 08:02 | 28.55184 | 77.08094 | 751 ft | 0 kts | 148° |
| 2026-05-09 08:35 | 28.55200 | 77.08082 | 749 ft | 4 kts | 146° |
| 2026-05-09 08:35 | 28.55223 | 77.08065 | 748 ft | 4 kts | 147° |
| 2026-05-09 08:36 | 28.55245 | 77.08051 | 748 ft | 4 kts | 173° |
| 2026-05-09 08:36 | 28.55259 | 77.08053 | 749 ft | 1 kts | 240° |
| 2026-05-09 08:36 | 28.55261 | 77.08057 | 746 ft | 0 kts | 240° |
| 2026-05-09 08:39 | 28.55258 | 77.08050 | 748 ft | 2 kts | 240° |
| 2026-05-09 08:39 | 28.55243 | 77.08021 | 751 ft | 7 kts | 240° |
| 2026-05-09 08:40 | 28.55210 | 77.07956 | 749 ft | 10 kts | 239° |
| 2026-05-09 08:40 | 28.55163 | 77.07903 | 749 ft | 11 kts | 200° |
| 2026-05-09 08:40 | 28.55111 | 77.07839 | 751 ft | 15 kts | 279° |
| 2026-05-09 08:40 | 28.55140 | 77.07719 | 750 ft | 15 kts | 285° |
| 2026-05-09 08:41 | 28.55165 | 77.07610 | 751 ft | 13 kts | 284° |
| 2026-05-09 08:41 | 28.55188 | 77.07510 | 749 ft | 13 kts | 285° |
| 2026-05-09 08:41 | 28.55215 | 77.07398 | 751 ft | 17 kts | 285° |
| 2026-05-09 08:41 | 28.55218 | 77.07269 | 748 ft | 16 kts | 227° |
| 2026-05-09 08:42 | 28.55114 | 77.07239 | 749 ft | 15 kts | 192° |
| 2026-05-09 08:42 | 28.55045 | 77.07220 | 750 ft | 0 kts | 194° |
| 2026-05-09 08:45 | 28.55020 | 77.07213 | 749 ft | 8 kts | 194° |
| 2026-05-09 08:45 | 28.54940 | 77.07203 | 749 ft | 13 kts | 157° |
| 2026-05-09 08:45 | 28.54915 | 77.07277 | 751 ft | 0 kts | 103° |
| 2026-05-09 08:46 | 28.54915 | 77.07278 | 751 ft | 0 kts | 103° |
| 2026-05-09 08:46 | 28.54913 | 77.07287 | 751 ft | 4 kts | 103° |
| 2026-05-09 08:47 | 28.54907 | 77.07317 | 752 ft | 7 kts | 103° |
| 2026-05-09 08:47 | 28.54891 | 77.07388 | 752 ft | 7 kts | 105° |
| 2026-05-09 08:47 | 28.54880 | 77.07435 | 750 ft | 6 kts | 105° |
| 2026-05-09 08:47 | 28.54873 | 77.07467 | 753 ft | 7 kts | 103° |
| 2026-05-09 08:48 | 28.54867 | 77.07496 | 751 ft | 1 kts | 102° |
| 2026-05-09 08:48 | 28.54867 | 77.07500 | 751 ft | 0 kts | 102° |
| 2026-05-09 08:48 | 28.54799 | 77.07813 | 752 ft | 76 kts | 104° |
| 2026-05-09 08:48 | 28.54626 | 77.08625 | 753 ft | 133 kts | 103° |
| 2026-05-09 08:49 | 28.54458 | 77.09400 | 757 ft | 164 kts | 104° |
| 2026-05-09 08:49 | 28.54187 | 77.10626 | 1365 ft | 159 kts | 104° |
| 2026-05-09 08:49 | 28.53890 | 77.11852 | 1896 ft | 167 kts | 112° |
| 2026-05-09 08:49 | 28.53139 | 77.12929 | 2114 ft | 188 kts | 147° |
| 2026-05-09 08:50 | 28.51818 | 77.13350 | 2245 ft | 214 kts | 174° |
| 2026-05-09 08:50 | 28.50260 | 77.13388 | 2465 ft | 239 kts | 179° |
| 2026-05-09 08:50 | 28.48509 | 77.13383 | 2790 ft | 261 kts | 178° |
| 2026-05-09 08:50 | 28.46659 | 77.13421 | 3430 ft | 268 kts | 176° |
| 2026-05-09 08:51 | 28.44832 | 77.13515 | 4530 ft | 254 kts | 175° |
| 2026-05-09 08:51 | 28.43026 | 77.13654 | 5129 ft | 269 kts | 174° |
| 2026-05-09 08:51 | 28.41131 | 77.13837 | 5784 ft | 276 kts | 173° |
| 2026-05-09 08:51 | 28.39201 | 77.14046 | 6507 ft | 282 kts | 173° |
| 2026-05-09 08:52 | 28.37250 | 77.14269 | 7084 ft | 283 kts | 174° |
| 2026-05-09 08:52 | 28.35218 | 77.14505 | 7344 ft | 301 kts | 174° |
| 2026-05-09 08:52 | 28.33165 | 77.14745 | 8373 ft | 289 kts | 175° |
| 2026-05-09 08:52 | 28.31139 | 77.14979 | 9050 ft | 298 kts | 175° |
| 2026-05-09 08:53 | 28.29040 | 77.15022 | 9656 ft | 305 kts | 188° |
| 2026-05-09 08:53 | 28.27002 | 77.14459 | 10228 ft | 309 kts | 202° |
| 2026-05-09 08:53 | 28.24901 | 77.13600 | 10406 ft | 333 kts | 202° |
| 2026-05-09 08:53 | 28.22652 | 77.12674 | 10558 ft | 354 kts | 202° |
| 2026-05-09 08:54 | 28.20294 | 77.11706 | 11008 ft | 363 kts | 202° |
| 2026-05-09 08:54 | 28.17892 | 77.10722 | 11123 ft | 367 kts | 201° |
| 2026-05-09 08:54 | 28.15486 | 77.09741 | 11120 ft | 366 kts | 201° |
| 2026-05-09 08:54 | 28.13096 | 77.08771 | 11679 ft | 358 kts | 201° |
| 2026-05-09 08:55 | 28.10816 | 77.07848 | 13012 ft | 338 kts | 202° |
| 2026-05-09 08:55 | 28.08173 | 77.06778 | 14563 ft | 311 kts | 202° |
| 2026-05-09 08:55 | 28.06171 | 77.05965 | 15470 ft | 303 kts | 201° |
| 2026-05-09 08:55 | 28.04151 | 77.05139 | 15594 ft | 325 kts | 201° |
| 2026-05-09 08:56 | 28.01955 | 77.04238 | 15719 ft | 345 kts | 201° |
| 2026-05-09 08:56 | 27.99635 | 77.03288 | 15845 ft | 364 kts | 201° |
| 2026-05-09 08:56 | 27.97193 | 77.02292 | 15970 ft | 382 kts | 201° |
| 2026-05-09 08:56 | 27.94641 | 77.01258 | 16205 ft | 395 kts | 201° |
| 2026-05-09 08:57 | 27.90891 | 76.99741 | 16732 ft | 404 kts | 201° |
| 2026-05-09 08:57 | 27.88260 | 76.98678 | 16723 ft | 401 kts | 201° |
| 2026-05-09 08:57 | 27.85151 | 76.97424 | 17773 ft | 383 kts | 200° |
| 2026-05-09 08:57 | 27.82612 | 76.96403 | 18111 ft | 396 kts | 200° |
| 2026-05-09 08:58 | 27.79972 | 76.95339 | 18342 ft | 407 kts | 200° |
| 2026-05-09 08:58 | 27.77263 | 76.94321 | 18764 ft | 412 kts | 193° |
| 2026-05-09 08:58 | 27.74407 | 76.94013 | 19214 ft | 417 kts | 176° |
| 2026-05-09 08:58 | 27.71570 | 76.94677 | 19674 ft | 419 kts | 158° |
| 2026-05-09 08:59 | 27.69038 | 76.96290 | 20140 ft | 419 kts | 139° |
| 2026-05-09 08:59 | 27.67065 | 76.98686 | 20609 ft | 417 kts | 121° |
| 2026-05-09 08:59 | 27.65822 | 77.01620 | 21083 ft | 415 kts | 103° |
| 2026-05-09 08:59 | 27.65405 | 77.04769 | 21547 ft | 411 kts | 86° |
| 2026-05-09 09:00 | 27.65495 | 77.08011 | 21841 ft | 418 kts | 84° |
| 2026-05-09 09:00 | 27.65608 | 77.11333 | 21967 ft | 429 kts | 84° |
| 2026-05-09 09:00 | 27.65723 | 77.14728 | 22210 ft | 436 kts | 84° |
| 2026-05-09 09:00 | 27.65835 | 77.18160 | 22568 ft | 439 kts | 84° |
| 2026-05-09 09:01 | 27.65942 | 77.21615 | 22944 ft | 442 kts | 84° |
| 2026-05-09 09:01 | 27.66049 | 77.25091 | 23333 ft | 445 kts | 85° |
| 2026-05-09 09:01 | 27.66156 | 77.28586 | 23653 ft | 447 kts | 85° |
| 2026-05-09 09:01 | 27.66263 | 77.32102 | 23946 ft | 450 kts | 84° |
| 2026-05-09 09:02 | 27.66370 | 77.35643 | 24235 ft | 452 kts | 84° |
| 2026-05-09 09:02 | 27.66478 | 77.39207 | 24517 ft | 455 kts | 84° |
| 2026-05-09 09:02 | 27.66587 | 77.42784 | 24791 ft | 458 kts | 84° |
| 2026-05-09 09:02 | 27.66694 | 77.46382 | 25063 ft | 460 kts | 84° |
| 2026-05-09 09:03 | 27.66796 | 77.49999 | 25326 ft | 463 kts | 84° |
| 2026-05-09 09:03 | 27.66897 | 77.53597 | 25586 ft | 465 kts | 84° |
| 2026-05-09 09:03 | 27.66998 | 77.57245 | 25842 ft | 467 kts | 84° |
| 2026-05-09 09:03 | 27.67100 | 77.60919 | 26102 ft | 469 kts | 84° |
| 2026-05-09 09:04 | 27.67204 | 77.64602 | 26363 ft | 471 kts | 84° |
| 2026-05-09 09:04 | 27.67310 | 77.68312 | 26601 ft | 473 kts | 84° |
| 2026-05-09 09:04 | 27.67415 | 77.72030 | 26830 ft | 475 kts | 84° |
| 2026-05-09 09:04 | 27.67519 | 77.75755 | 27051 ft | 477 kts | 84° |
| 2026-05-09 09:05 | 27.67621 | 77.79513 | 27258 ft | 479 kts | 84° |
| 2026-05-09 09:05 | 27.67719 | 77.83269 | 27474 ft | 481 kts | 84° |
| 2026-05-09 09:05 | 27.67814 | 77.87037 | 27777 ft | 480 kts | 84° |
| 2026-05-09 09:05 | 27.67908 | 77.90802 | 28079 ft | 480 kts | 84° |
| 2026-05-09 09:06 | 27.68002 | 77.94565 | 28377 ft | 480 kts | 84° |
| 2026-05-09 09:06 | 27.68095 | 77.98334 | 28720 ft | 479 kts | 84° |
| 2026-05-09 09:06 | 27.68188 | 78.02084 | 29071 ft | 478 kts | 84° |
| 2026-05-09 09:06 | 27.68281 | 78.05827 | 29394 ft | 477 kts | 84° |
| 2026-05-09 09:07 | 27.68377 | 78.09515 | 29706 ft | 477 kts | 84° |
| 2026-05-09 09:07 | 27.68473 | 78.13260 | 29999 ft | 476 kts | 83° |
| 2026-05-09 09:07 | 27.68565 | 78.16987 | 30255 ft | 476 kts | 83° |
| 2026-05-09 09:07 | 27.68658 | 78.20729 | 30518 ft | 476 kts | 83° |
| 2026-05-09 09:08 | 27.68749 | 78.24464 | 30766 ft | 476 kts | 83° |
| 2026-05-09 09:08 | 27.68836 | 78.28204 | 31024 ft | 476 kts | 83° |
| 2026-05-09 09:08 | 27.68923 | 78.31935 | 31278 ft | 476 kts | 83° |
| 2026-05-09 09:08 | 27.69010 | 78.35658 | 31533 ft | 476 kts | 83° |
| 2026-05-09 09:09 | 27.69095 | 78.39396 | 31796 ft | 476 kts | 82° |
| 2026-05-09 09:09 | 27.69178 | 78.43134 | 32055 ft | 475 kts | 82° |
| 2026-05-09 09:09 | 27.69259 | 78.46870 | 32316 ft | 475 kts | 82° |
| 2026-05-09 09:09 | 27.69338 | 78.50590 | 32574 ft | 475 kts | 82° |
| 2026-05-09 09:10 | 27.69414 | 78.54276 | 32824 ft | 475 kts | 82° |
| 2026-05-09 09:10 | 27.69493 | 78.58010 | 33078 ft | 475 kts | 82° |
| 2026-05-09 09:10 | 27.69571 | 78.61736 | 33334 ft | 475 kts | 81° |
| 2026-05-09 09:10 | 27.69650 | 78.65461 | 33594 ft | 475 kts | 81° |
| 2026-05-09 09:11 | 27.69727 | 78.69183 | 33877 ft | 474 kts | 82° |
| 2026-05-09 09:11 | 27.69802 | 78.72905 | 34091 ft | 474 kts | 82° |
| 2026-05-09 09:11 | 27.69878 | 78.76636 | 34304 ft | 475 kts | 82° |
| 2026-05-09 09:11 | 27.69953 | 78.80360 | 34490 ft | 475 kts | 82° |
| 2026-05-09 09:12 | 27.70025 | 78.84086 | 34689 ft | 475 kts | 82° |
| 2026-05-09 09:12 | 27.70098 | 78.87814 | 34868 ft | 475 kts | 81° |
| 2026-05-09 09:12 | 27.70169 | 78.91544 | 35045 ft | 476 kts | 81° |
| 2026-05-09 09:12 | 27.70238 | 78.95276 | 35222 ft | 476 kts | 81° |
| 2026-05-09 09:13 | 27.70303 | 78.99017 | 35392 ft | 476 kts | 81° |
| 2026-05-09 09:13 | 27.70367 | 79.02701 | 35561 ft | 476 kts | 81° |
| 2026-05-09 09:13 | 27.70433 | 79.06442 | 35759 ft | 476 kts | 82° |
| 2026-05-09 09:13 | 27.70500 | 79.10193 | 35915 ft | 476 kts | 82° |
| 2026-05-09 09:14 | 27.70565 | 79.13930 | 36063 ft | 476 kts | 82° |
| 2026-05-09 09:14 | 27.70630 | 79.17676 | 36213 ft | 476 kts | 82° |
| 2026-05-09 09:14 | 27.70695 | 79.21405 | 36369 ft | 476 kts | 82° |
| 2026-05-09 09:14 | 27.70761 | 79.25152 | 36505 ft | 477 kts | 82° |
| 2026-05-09 09:15 | 27.70826 | 79.28891 | 36646 ft | 477 kts | 82° |
| 2026-05-09 09:15 | 27.70886 | 79.32627 | 36803 ft | 476 kts | 82° |
| 2026-05-09 09:15 | 27.70944 | 79.36372 | 36851 ft | 478 kts | 82° |
| 2026-05-09 09:16 | 27.71057 | 79.43880 | 36862 ft | 482 kts | 83° |
| 2026-05-09 09:16 | 27.71216 | 79.55267 | 36846 ft | 484 kts | 83° |
| 2026-05-09 09:17 | 27.71329 | 79.62884 | 36847 ft | 484 kts | 83° |
| 2026-05-09 09:17 | 27.71429 | 79.70487 | 36848 ft | 485 kts | 83° |
| 2026-05-09 09:18 | 27.71522 | 79.78054 | 36853 ft | 485 kts | 83° |
| 2026-05-09 09:18 | 27.71614 | 79.85669 | 36872 ft | 486 kts | 84° |
| 2026-05-09 09:19 | 27.71705 | 79.93293 | 36864 ft | 486 kts | 84° |
| 2026-05-09 09:19 | 27.71791 | 80.00924 | 36858 ft | 486 kts | 84° |
| 2026-05-09 09:20 | 27.71870 | 80.08561 | 36850 ft | 487 kts | 84° |
| 2026-05-09 09:20 | 27.71945 | 80.16204 | 36843 ft | 487 kts | 84° |
| 2026-05-09 09:21 | 27.72024 | 80.23863 | 36857 ft | 488 kts | 85° |
| 2026-05-09 09:21 | 27.72093 | 80.31478 | 36857 ft | 488 kts | 85° |
| 2026-05-09 09:22 | 27.72153 | 80.39150 | 36857 ft | 488 kts | 85° |
| 2026-05-09 09:22 | 27.72211 | 80.46810 | 36859 ft | 488 kts | 85° |
| 2026-05-09 09:23 | 27.72262 | 80.54481 | 36875 ft | 489 kts | 85° |
| 2026-05-09 09:23 | 27.72320 | 80.62151 | 36871 ft | 489 kts | 86° |
| 2026-05-09 09:24 | 27.72375 | 80.69823 | 36872 ft | 489 kts | 86° |
| 2026-05-09 09:24 | 27.72420 | 80.77496 | 36866 ft | 489 kts | 86° |
| 2026-05-09 09:25 | 27.72455 | 80.85182 | 36861 ft | 489 kts | 86° |
| 2026-05-09 09:25 | 27.72489 | 80.92822 | 36870 ft | 489 kts | 86° |
| 2026-05-09 09:26 | 27.72521 | 81.00512 | 36868 ft | 489 kts | 86° |
| 2026-05-09 09:26 | 27.72549 | 81.08192 | 36867 ft | 489 kts | 87° |
| 2026-05-09 09:27 | 27.72563 | 81.15861 | 36863 ft | 489 kts | 87° |
| 2026-05-09 09:27 | 27.72586 | 81.23487 | 36864 ft | 488 kts | 87° |
| 2026-05-09 09:28 | 27.72605 | 81.31173 | 36865 ft | 488 kts | 88° |
| 2026-05-09 09:28 | 27.72615 | 81.38836 | 36862 ft | 488 kts | 88° |
| 2026-05-09 09:29 | 27.72619 | 81.46494 | 36855 ft | 488 kts | 88° |
| 2026-05-09 09:29 | 27.72619 | 81.54157 | 36858 ft | 488 kts | 88° |
| 2026-05-09 09:30 | 27.72613 | 81.61811 | 36851 ft | 488 kts | 88° |
| 2026-05-09 09:30 | 27.72606 | 81.69463 | 36856 ft | 487 kts | 88° |
| 2026-05-09 09:31 | 27.72603 | 81.77071 | 36851 ft | 487 kts | 88° |
| 2026-05-09 09:32 | 27.72575 | 81.88560 | 36845 ft | 487 kts | 88° |
| 2026-05-09 09:32 | 27.72550 | 81.96206 | 36848 ft | 487 kts | 88° |
| 2026-05-09 09:33 | 27.72522 | 82.03868 | 36849 ft | 487 kts | 88° |
| 2026-05-09 09:33 | 27.72491 | 82.11462 | 36845 ft | 487 kts | 88° |
| 2026-05-09 09:34 | 27.72460 | 82.19122 | 36851 ft | 487 kts | 89° |
| 2026-05-09 09:34 | 27.72424 | 82.25469 | 36848 ft | 487 kts | 89° |
| 2026-05-09 09:36 | 27.72230 | 82.56075 | 36861 ft | 488 kts | 89° |
| 2026-05-09 09:37 | 27.72175 | 82.63730 | 36861 ft | 488 kts | 89° |
| 2026-05-09 09:37 | 27.72119 | 82.71342 | 36868 ft | 488 kts | 89° |
| 2026-05-09 09:38 | 27.72045 | 82.79009 | 36869 ft | 488 kts | 90° |
| 2026-05-09 09:38 | 27.71970 | 82.86666 | 36878 ft | 488 kts | 90° |
| 2026-05-09 09:39 | 27.71899 | 82.94331 | 36878 ft | 488 kts | 90° |
| 2026-05-09 09:39 | 27.71818 | 83.01995 | 36892 ft | 488 kts | 90° |
| 2026-05-09 09:40 | 27.71728 | 83.09659 | 36887 ft | 488 kts | 90° |
| 2026-05-09 09:40 | 27.71643 | 83.17261 | 36906 ft | 488 kts | 90° |
| 2026-05-09 09:41 | 27.71556 | 83.24928 | 36900 ft | 488 kts | 90° |
| 2026-05-09 09:41 | 27.71457 | 83.32592 | 36899 ft | 488 kts | 91° |
| 2026-05-09 09:42 | 27.71348 | 83.40267 | 36894 ft | 489 kts | 91° |
| 2026-05-09 09:42 | 27.71242 | 83.47937 | 36894 ft | 489 kts | 91° |
| 2026-05-09 09:43 | 27.71137 | 83.55555 | 36900 ft | 489 kts | 91° |
| 2026-05-09 09:43 | 27.71028 | 83.63230 | 36904 ft | 489 kts | 91° |
| 2026-05-09 09:44 | 27.70905 | 83.70911 | 36897 ft | 489 kts | 91° |
| 2026-05-09 09:44 | 27.70778 | 83.78606 | 36903 ft | 490 kts | 91° |
| 2026-05-09 09:45 | 27.70648 | 83.86302 | 36899 ft | 490 kts | 91° |
| 2026-05-09 09:45 | 27.70514 | 83.94001 | 36907 ft | 490 kts | 92° |
| 2026-05-09 09:46 | 27.70381 | 84.01664 | 36890 ft | 491 kts | 92° |
| 2026-05-09 09:46 | 27.70250 | 84.09369 | 36896 ft | 491 kts | 92° |
| 2026-05-09 09:47 | 27.70107 | 84.17087 | 36899 ft | 491 kts | 92° |
| 2026-05-09 09:47 | 27.69957 | 84.24815 | 36909 ft | 492 kts | 92° |
| 2026-05-09 09:48 | 27.69803 | 84.32478 | 36904 ft | 492 kts | 92° |
| 2026-05-09 09:48 | 27.69642 | 84.40205 | 36914 ft | 493 kts | 92° |
| 2026-05-09 09:49 | 27.69486 | 84.47943 | 36917 ft | 493 kts | 92° |
| 2026-05-09 09:49 | 27.69325 | 84.55688 | 36938 ft | 494 kts | 92° |
| 2026-05-09 09:50 | 27.69147 | 84.63452 | 36937 ft | 494 kts | 92° |
| 2026-05-09 09:50 | 27.68967 | 84.71198 | 36957 ft | 495 kts | 93° |
| 2026-05-09 09:51 | 27.68786 | 84.78975 | 36944 ft | 496 kts | 93° |
| 2026-05-09 09:51 | 27.68600 | 84.86756 | 36978 ft | 497 kts | 93° |
| 2026-05-09 09:52 | 27.68409 | 84.94568 | 36984 ft | 497 kts | 93° |
| 2026-05-09 09:52 | 27.68224 | 85.02331 | 36993 ft | 498 kts | 93° |
| 2026-05-09 09:53 | 27.68024 | 85.10153 | 36987 ft | 500 kts | 94° |
| 2026-05-09 09:53 | 27.67813 | 85.18017 | 37012 ft | 502 kts | 93° |
| 2026-05-09 09:54 | 27.67604 | 85.25907 | 37016 ft | 503 kts | 93° |
| 2026-05-09 09:54 | 27.67335 | 85.34169 | 37067 ft | 502 kts | 98° |
| 2026-05-09 09:55 | 27.66035 | 85.41933 | 37075 ft | 500 kts | 105° |
| 2026-05-09 09:55 | 27.64576 | 85.49560 | 37066 ft | 502 kts | 105° |
| 2026-05-09 09:56 | 27.63105 | 85.57279 | 37054 ft | 503 kts | 105° |
| 2026-05-09 09:56 | 27.61634 | 85.64993 | 37063 ft | 503 kts | 105° |
| 2026-05-09 09:57 | 27.60157 | 85.72702 | 37061 ft | 504 kts | 105° |
| 2026-05-09 09:57 | 27.58671 | 85.80425 | 37084 ft | 503 kts | 105° |
| 2026-05-09 09:58 | 27.57194 | 85.88087 | 37086 ft | 504 kts | 105° |
| 2026-05-09 09:58 | 27.55704 | 85.95811 | 37117 ft | 504 kts | 105° |
| 2026-05-09 09:59 | 27.54208 | 86.03538 | 37110 ft | 503 kts | 105° |
| 2026-05-09 09:59 | 27.52709 | 86.11254 | 37061 ft | 504 kts | 105° |
| 2026-05-09 10:00 | 27.51214 | 86.18926 | 37090 ft | 504 kts | 105° |
| 2026-05-09 10:00 | 27.49698 | 86.26649 | 37091 ft | 504 kts | 105° |
| 2026-05-09 10:01 | 27.48193 | 86.34401 | 37135 ft | 505 kts | 105° |
| 2026-05-09 10:01 | 27.46719 | 86.42137 | 37127 ft | 505 kts | 105° |
| 2026-05-09 10:02 | 27.45249 | 86.49876 | 37154 ft | 505 kts | 105° |
| 2026-05-09 10:02 | 27.43768 | 86.57556 | 37153 ft | 506 kts | 106° |
| 2026-05-09 10:03 | 27.42260 | 86.65300 | 37092 ft | 507 kts | 106° |
| 2026-05-09 10:03 | 27.40753 | 86.73073 | 37103 ft | 509 kts | 106° |
| 2026-05-09 10:04 | 27.39243 | 86.80852 | 37115 ft | 509 kts | 106° |
| 2026-05-09 10:04 | 27.37719 | 86.88648 | 37117 ft | 510 kts | 106° |
| 2026-05-09 10:05 | 27.36197 | 86.96434 | 37097 ft | 508 kts | 106° |
| 2026-05-09 10:05 | 27.34925 | 87.02904 | 37114 ft | 510 kts | 107° |
| 2026-05-09 10:06 | 27.33380 | 87.10697 | 37113 ft | 510 kts | 107° |
| 2026-05-09 10:06 | 27.31641 | 87.18407 | 37053 ft | 504 kts | 115° |
| 2026-05-09 10:07 | 27.28455 | 87.25317 | 37069 ft | 495 kts | 127° |
| 2026-05-09 10:07 | 27.24821 | 87.31894 | 37073 ft | 496 kts | 127° |
| 2026-05-09 10:08 | 27.21184 | 87.38494 | 37066 ft | 496 kts | 128° |
| 2026-05-09 10:08 | 27.17560 | 87.45078 | 37037 ft | 494 kts | 128° |
| 2026-05-09 10:09 | 27.13939 | 87.51632 | 37010 ft | 495 kts | 128° |
| 2026-05-09 10:09 | 27.10324 | 87.58152 | 37041 ft | 494 kts | 128° |
| 2026-05-09 10:10 | 27.06682 | 87.64712 | 36991 ft | 495 kts | 128° |
| 2026-05-09 10:10 | 27.03040 | 87.71273 | 36995 ft | 496 kts | 129° |
| 2026-05-09 10:11 | 26.99391 | 87.77833 | 37010 ft | 496 kts | 129° |
| 2026-05-09 10:11 | 26.95736 | 87.84386 | 36967 ft | 496 kts | 129° |
| 2026-05-09 10:12 | 26.92072 | 87.90932 | 36985 ft | 496 kts | 129° |
| 2026-05-09 10:12 | 26.88409 | 87.97484 | 36978 ft | 496 kts | 129° |
| 2026-05-09 10:13 | 26.84769 | 88.03991 | 36914 ft | 496 kts | 130° |
| 2026-05-09 10:13 | 26.81106 | 88.10534 | 36923 ft | 496 kts | 130° |
| 2026-05-09 10:14 | 26.77427 | 88.17084 | 36914 ft | 497 kts | 130° |
| 2026-05-09 10:14 | 26.73817 | 88.23698 | 36900 ft | 504 kts | 123° |
| 2026-05-09 10:14 | 26.72555 | 88.27405 | 36876 ft | 517 kts | 110° |
| 2026-05-09 10:15 | 26.71982 | 88.31409 | 36875 ft | 527 kts | 97° |
| 2026-05-09 10:15 | 26.72150 | 88.35529 | 36865 ft | 535 kts | 83° |
| 2026-05-09 10:15 | 26.73072 | 88.39568 | 36868 ft | 538 kts | 70° |
| 2026-05-09 10:15 | 26.74710 | 88.43332 | 36896 ft | 539 kts | 58° |
| 2026-05-09 10:16 | 26.76658 | 88.46917 | 36899 ft | 540 kts | 58° |
| 2026-05-09 10:16 | 26.80589 | 88.54088 | 36888 ft | 541 kts | 57° |
| 2026-05-09 10:17 | 26.84511 | 88.61228 | 36906 ft | 542 kts | 57° |
| 2026-05-09 10:17 | 26.88460 | 88.68447 | 36998 ft | 543 kts | 58° |
| 2026-05-09 10:18 | 26.92393 | 88.75690 | 36146 ft | 547 kts | 58° |
| 2026-05-09 10:18 | 26.94374 | 88.79341 | 35231 ft | 549 kts | 58° |
| 2026-05-09 10:18 | 26.96350 | 88.82982 | 34151 ft | 543 kts | 58° |
| 2026-05-09 10:18 | 26.98301 | 88.86583 | 32622 ft | 540 kts | 58° |
| 2026-05-09 10:19 | 27.00217 | 88.90206 | 31138 ft | 536 kts | 59° |
| 2026-05-09 10:19 | 27.02052 | 88.93815 | 29460 ft | 532 kts | 59° |
| 2026-05-09 10:19 | 27.03824 | 88.97416 | 28237 ft | 519 kts | 60° |
| 2026-05-09 10:19 | 27.05493 | 89.00871 | 27968 ft | 488 kts | 60° |
| 2026-05-09 10:20 | 27.07063 | 89.04114 | 27852 ft | 459 kts | 60° |
| 2026-05-09 10:20 | 27.08556 | 89.07163 | 27742 ft | 433 kts | 60° |
| 2026-05-09 10:20 | 27.09963 | 89.10004 | 27638 ft | 409 kts | 59° |
| 2026-05-09 10:20 | 27.11322 | 89.12729 | 27595 ft | 394 kts | 59° |
| 2026-05-09 10:21 | 27.12642 | 89.15388 | 27514 ft | 389 kts | 63° |
| 2026-05-09 10:21 | 27.13555 | 89.18238 | 27430 ft | 386 kts | 80° |
| 2026-05-09 10:21 | 27.13745 | 89.21221 | 27336 ft | 382 kts | 97° |
| 2026-05-09 10:21 | 27.13431 | 89.24176 | 27037 ft | 381 kts | 99° |
| 2026-05-09 10:22 | 27.13090 | 89.27121 | 26566 ft | 381 kts | 99° |
| 2026-05-09 10:22 | 27.12749 | 89.30072 | 26075 ft | 382 kts | 99° |
| 2026-05-09 10:22 | 27.12408 | 89.33029 | 25588 ft | 383 kts | 99° |
| 2026-05-09 10:22 | 27.12068 | 89.35993 | 25095 ft | 383 kts | 99° |
| 2026-05-09 10:23 | 27.11730 | 89.38964 | 24594 ft | 383 kts | 98° |
| 2026-05-09 10:23 | 27.11469 | 89.41956 | 23887 ft | 391 kts | 89° |
| 2026-05-09 10:23 | 27.11897 | 89.45013 | 22884 ft | 404 kts | 72° |
| 2026-05-09 10:23 | 27.13029 | 89.47905 | 21945 ft | 409 kts | 53° |
| 2026-05-09 10:24 | 27.15025 | 89.50061 | 21074 ft | 400 kts | 28° |
| 2026-05-09 10:24 | 27.17557 | 89.51028 | 20729 ft | 374 kts | 3° |
| 2026-05-09 10:24 | 27.20028 | 89.50715 | 20433 ft | 349 kts | 336° |
| 2026-05-09 10:24 | 27.21973 | 89.49273 | 20166 ft | 326 kts | 308° |
| 2026-05-09 10:25 | 27.22998 | 89.47116 | 19815 ft | 307 kts | 281° |
| 2026-05-09 10:25 | 27.23399 | 89.44806 | 19455 ft | 297 kts | 279° |
| 2026-05-09 10:25 | 27.23768 | 89.42562 | 19099 ft | 287 kts | 279° |
| 2026-05-09 10:25 | 27.23986 | 89.40375 | 18757 ft | 276 kts | 266° |
| 2026-05-09 10:26 | 27.23862 | 89.38244 | 18458 ft | 270 kts | 271° |
| 2026-05-09 10:26 | 27.24170 | 89.36185 | 18102 ft | 268 kts | 283° |
| 2026-05-09 10:26 | 27.24825 | 89.34259 | 17780 ft | 267 kts | 300° |
| 2026-05-09 10:26 | 27.25999 | 89.32633 | 17483 ft | 268 kts | 316° |
| 2026-05-09 10:27 | 27.27507 | 89.31416 | 17253 ft | 267 kts | 330° |
| 2026-05-09 10:27 | 27.29200 | 89.30677 | 16996 ft | 255 kts | 345° |
| 2026-05-09 10:27 | 27.30919 | 89.30451 | 16667 ft | 243 kts | 0° |
| 2026-05-09 10:27 | 27.32552 | 89.30636 | 16396 ft | 230 kts | 3° |
| 2026-05-09 10:28 | 27.34116 | 89.30585 | 16110 ft | 219 kts | 350° |
| 2026-05-09 10:28 | 27.35550 | 89.30168 | 15839 ft | 209 kts | 336° |
| 2026-05-09 10:28 | 27.36830 | 89.29417 | 15575 ft | 205 kts | 323° |
| 2026-05-09 10:28 | 27.38012 | 89.28520 | 15307 ft | 204 kts | 324° |
| 2026-05-09 10:29 | 27.39165 | 89.27659 | 15059 ft | 192 kts | 325° |
| 2026-05-09 10:29 | 27.40246 | 89.26857 | 14811 ft | 182 kts | 325° |
| 2026-05-09 10:29 | 27.41334 | 89.26160 | 14595 ft | 179 kts | 336° |
| 2026-05-09 10:29 | 27.42525 | 89.25776 | 14361 ft | 178 kts | 351° |
| 2026-05-09 10:30 | 27.43761 | 89.25738 | 14328 ft | 181 kts | 6° |
| 2026-05-09 10:30 | 27.44983 | 89.26049 | 14242 ft | 181 kts | 20° |
| 2026-05-09 10:30 | 27.46122 | 89.26692 | 13910 ft | 181 kts | 34° |
| 2026-05-09 10:30 | 27.47073 | 89.27606 | 13367 ft | 186 kts | 49° |
| 2026-05-09 10:31 | 27.47812 | 89.28766 | 12964 ft | 180 kts | 63° |
| 2026-05-09 10:31 | 27.48231 | 89.30052 | 12470 ft | 175 kts | 81° |
| 2026-05-09 10:31 | 27.48309 | 89.31425 | 11831 ft | 178 kts | 93° |
| 2026-05-09 10:31 | 27.48119 | 89.32847 | 11163 ft | 186 kts | 105° |
| 2026-05-09 10:32 | 27.47615 | 89.34169 | 10791 ft | 178 kts | 121° |
| 2026-05-09 10:32 | 27.46897 | 89.35238 | 10593 ft | 167 kts | 133° |
| 2026-05-09 10:32 | 27.46124 | 89.36148 | 10463 ft | 154 kts | 137° |
| 2026-05-09 10:32 | 27.45383 | 89.36993 | 10222 ft | 150 kts | 133° |
| 2026-05-09 10:33 | 27.44700 | 89.37870 | 9902 ft | 149 kts | 131° |
| 2026-05-09 10:33 | 27.44058 | 89.38784 | 9538 ft | 149 kts | 128° |
| 2026-05-09 10:33 | 27.43421 | 89.39699 | 9102 ft | 150 kts | 128° |
| 2026-05-09 10:33 | 27.42799 | 89.40646 | 8586 ft | 158 kts | 127° |
| 2026-05-09 10:34 | 27.41992 | 89.41553 | 7915 ft | 172 kts | 152° |
| 2026-05-09 10:34 | 27.39985 | 89.42827 | 7871 ft | 168 kts | 142° |
| 2026-05-09 10:34 | 27.38977 | 89.43665 | 8536 ft | 193 kts | 148° |
| 2026-05-09 10:35 | 27.37817 | 89.44441 | 9278 ft | 194 kts | 150° |
| 2026-05-09 10:35 | 27.36612 | 89.45192 | 9677 ft | 204 kts | 152° |
| 2026-05-09 10:35 | 27.35310 | 89.45964 | 9926 ft | 220 kts | 153° |
| 2026-05-09 10:35 | 27.33933 | 89.46878 | 10073 ft | 242 kts | 148° |
| 2026-05-09 10:36 | 27.32477 | 89.48001 | 10298 ft | 264 kts | 137° |
| 2026-05-09 10:36 | 27.31311 | 89.49657 | 10736 ft | 276 kts | 118° |
| 2026-05-09 10:36 | 27.30878 | 89.51679 | 11751 ft | 263 kts | 92° |
| 2026-05-09 10:36 | 27.31012 | 89.53749 | 12477 ft | 269 kts | 86° |
| 2026-05-09 10:37 | 27.30887 | 89.55800 | 13376 ft | 261 kts | 108° |
| 2026-05-09 10:37 | 27.30015 | 89.57552 | 14216 ft | 257 kts | 135° |
| 2026-05-09 10:37 | 27.28587 | 89.58735 | 14850 ft | 257 kts | 153° |
| 2026-05-09 10:37 | 27.26917 | 89.59585 | 15263 ft | 267 kts | 161° |
| 2026-05-09 10:38 | 27.25107 | 89.59990 | 15870 ft | 267 kts | 186° |
| 2026-05-09 10:38 | 27.23325 | 89.59401 | 16019 ft | 268 kts | 212° |
| 2026-05-09 10:38 | 27.21985 | 89.58002 | 15756 ft | 266 kts | 237° |
| 2026-05-09 10:38 | 27.21306 | 89.56090 | 15460 ft | 265 kts | 259° |
| 2026-05-09 10:39 | 27.21015 | 89.54066 | 15243 ft | 260 kts | 252° |
| 2026-05-09 10:39 | 27.20081 | 89.52384 | 14881 ft | 257 kts | 217° |
| 2026-05-09 10:39 | 27.18465 | 89.51616 | 14509 ft | 256 kts | 184° |
| 2026-05-09 10:39 | 27.16716 | 89.51888 | 14168 ft | 256 kts | 165° |
| 2026-05-09 10:40 | 27.14982 | 89.52324 | 13825 ft | 255 kts | 171° |
| 2026-05-09 10:40 | 27.13222 | 89.52601 | 13435 ft | 254 kts | 173° |
| 2026-05-09 10:40 | 27.11486 | 89.52925 | 13129 ft | 252 kts | 157° |
| 2026-05-09 10:40 | 27.10101 | 89.54088 | 13057 ft | 253 kts | 130° |
| 2026-05-09 10:41 | 27.09248 | 89.55812 | 13037 ft | 256 kts | 105° |
| 2026-05-09 10:41 | 27.09162 | 89.57771 | 13033 ft | 258 kts | 79° |
| 2026-05-09 10:41 | 27.09907 | 89.59590 | 13033 ft | 260 kts | 51° |
| 2026-05-09 10:41 | 27.11340 | 89.60808 | 13063 ft | 261 kts | 21° |
| 2026-05-09 10:42 | 27.13123 | 89.61156 | 13076 ft | 263 kts | 356° |
| 2026-05-09 10:42 | 27.13928 | 89.61024 | 14593 ft | 251 kts | 343° |
| 2026-05-09 10:42 | 27.15468 | 89.60218 | 15281 ft | 252 kts | 325° |
| 2026-05-09 10:42 | 27.16809 | 89.58874 | 15283 ft | 263 kts | 308° |
| 2026-05-09 10:43 | 27.17991 | 89.57285 | 15287 ft | 267 kts | 309° |
| 2026-05-09 10:43 | 27.19185 | 89.55678 | 15304 ft | 268 kts | 309° |
| 2026-05-09 10:43 | 27.20379 | 89.54068 | 15325 ft | 268 kts | 309° |
| 2026-05-09 10:43 | 27.21568 | 89.52461 | 15329 ft | 268 kts | 309° |
| 2026-05-09 10:44 | 27.22751 | 89.50857 | 15074 ft | 265 kts | 308° |
| 2026-05-09 10:44 | 27.23917 | 89.49276 | 14907 ft | 259 kts | 308° |
| 2026-05-09 10:44 | 27.25052 | 89.47735 | 14761 ft | 252 kts | 308° |
| 2026-05-09 10:44 | 27.26134 | 89.46263 | 14656 ft | 241 kts | 308° |
| 2026-05-09 10:45 | 27.27173 | 89.44850 | 14543 ft | 228 kts | 308° |
| 2026-05-09 10:46 | 27.30709 | 89.40033 | 14346 ft | 179 kts | 307° |
| 2026-05-09 10:46 | 27.31496 | 89.38959 | 14317 ft | 177 kts | 307° |
| 2026-05-09 10:46 | 27.32279 | 89.37889 | 14277 ft | 176 kts | 307° |
| 2026-05-09 10:46 | 27.33059 | 89.36825 | 14244 ft | 176 kts | 308° |
| 2026-05-09 10:47 | 27.33839 | 89.35761 | 14221 ft | 176 kts | 308° |
| 2026-05-09 10:47 | 27.34617 | 89.34698 | 14172 ft | 176 kts | 308° |
| 2026-05-09 10:47 | 27.35395 | 89.33633 | 14138 ft | 176 kts | 307° |
| 2026-05-09 10:47 | 27.36173 | 89.32568 | 14097 ft | 176 kts | 307° |
| 2026-05-09 10:48 | 27.36952 | 89.31504 | 14066 ft | 176 kts | 308° |
| 2026-05-09 10:48 | 27.37731 | 89.30444 | 14025 ft | 176 kts | 308° |
| 2026-05-09 10:48 | 27.38508 | 89.29386 | 13986 ft | 175 kts | 308° |
| 2026-05-09 10:48 | 27.39272 | 89.28344 | 13946 ft | 174 kts | 308° |
| 2026-05-09 10:49 | 27.40046 | 89.27290 | 13905 ft | 174 kts | 310° |
| 2026-05-09 10:49 | 27.40967 | 89.26406 | 13858 ft | 175 kts | 328° |
| 2026-05-09 10:49 | 27.42087 | 89.25870 | 13862 ft | 176 kts | 345° |
| 2026-05-09 10:49 | 27.43301 | 89.25712 | 13770 ft | 175 kts | 0° |
| 2026-05-09 10:50 | 27.44509 | 89.25878 | 13654 ft | 175 kts | 13° |
| 2026-05-09 10:50 | 27.45643 | 89.26364 | 13535 ft | 176 kts | 28° |
| 2026-05-09 10:50 | 27.46635 | 89.27160 | 13385 ft | 176 kts | 43° |
| 2026-05-09 10:50 | 27.47427 | 89.28208 | 13178 ft | 176 kts | 57° |
| 2026-05-09 10:51 | 27.47972 | 89.29434 | 12888 ft | 173 kts | 70° |
| 2026-05-09 10:51 | 27.48233 | 89.30738 | 12484 ft | 171 kts | 85° |
| 2026-05-09 10:51 | 27.48195 | 89.32081 | 12070 ft | 170 kts | 100° |
| 2026-05-09 10:51 | 27.47905 | 89.33370 | 11645 ft | 172 kts | 108° |
| 2026-05-09 10:52 | 27.47470 | 89.34631 | 11190 ft | 174 kts | 116° |
| 2026-05-09 10:52 | 27.46853 | 89.35830 | 10634 ft | 180 kts | 124° |
| 2026-05-09 10:52 | 27.46114 | 89.36988 | 10033 ft | 188 kts | 127° |
| 2026-05-09 10:52 | 27.45299 | 89.38170 | 9384 ft | 194 kts | 129° |
| 2026-05-09 10:53 | 27.44432 | 89.39327 | 8813 ft | 191 kts | 132° |
| 2026-05-09 10:53 | 27.43499 | 89.40352 | 8377 ft | 184 kts | 140° |
| 2026-05-09 10:53 | 27.42465 | 89.41149 | 7983 ft | 177 kts | 152° |
| 2026-05-09 10:53 | 27.41402 | 89.41793 | 7550 ft | 173 kts | 151° |
| 2026-05-09 10:54 | 27.41045 | 89.42018 | 7390 ft | 173 kts | 152° |
| 2026-05-09 10:54 | 27.40396 | 89.42416 | 7346 ft | 147 kts | 146° |
| 2026-05-09 10:54 | 27.39620 | 89.42919 | 7322 ft | 36 kts | 150° |
| 2026-05-09 10:54 | 27.39467 | 89.43012 | 7314 ft | 16 kts | 174° |
| 2026-05-09 10:55 | 27.39427 | 89.42982 | 7314 ft | 0 kts | 243° |
| 2026-05-09 10:55 | 27.39420 | 89.42959 | 7315 ft | 6 kts | 259° |
| 2026-05-09 10:55 | 27.39455 | 89.42920 | 7317 ft | 10 kts | 330° |
| 2026-05-09 10:55 | 27.39529 | 89.42874 | 7320 ft | 14 kts | 331° |
| 2026-05-09 10:56 | 27.39625 | 89.42813 | 7323 ft | 18 kts | 330° |
| 2026-05-09 10:56 | 27.39729 | 89.42747 | 7326 ft | 18 kts | 330° |
| 2026-05-09 10:56 | 27.39844 | 89.42673 | 7329 ft | 19 kts | 329° |
| 2026-05-09 10:56 | 27.39975 | 89.42590 | 7333 ft | 23 kts | 331° |
| 2026-05-09 10:57 | 27.40113 | 89.42501 | 7338 ft | 19 kts | 329° |
| 2026-05-09 10:57 | 27.40226 | 89.42429 | 7341 ft | 18 kts | 331° |
| 2026-05-09 10:57 | 27.40334 | 89.42362 | 7345 ft | 17 kts | 331° |
| 2026-05-09 10:57 | 27.40432 | 89.42299 | 7349 ft | 16 kts | 329° |
| 2026-05-09 10:58 | 27.40523 | 89.42239 | 7352 ft | 15 kts | 330° |
| 2026-05-09 10:58 | 27.40604 | 89.42189 | 7355 ft | 11 kts | 332° |
| 2026-05-09 10:58 | 27.40651 | 89.42159 | 7356 ft | 1 kts | 324° |
| 2026-05-09 10:58 | 27.40652 | 89.42154 | 7356 ft | 1 kts | 292° |
| 2026-05-09 10:59 | 27.40644 | 89.42129 | 7356 ft | 6 kts | 250° |
| 2026-05-09 10:59 | 27.40635 | 89.42112 | 7357 ft | 1 kts | 239° |
| 2026-05-09 10:59 | 27.40632 | 89.42107 | 7358 ft | 1 kts | 239° |
| 2026-05-09 10:59 | 27.40630 | 89.42104 | 7358 ft | 0 kts | 238° |